Map

Track Data

SID SEASON NUMBER BASIN SUBBASIN NAME ISO_TIME NATURE LAT LON WMO_WIND WMO_PRES WMO_AGENCY TRACK_TYPE DIST2LAND LANDFALL IFLAG USA_AGENCY USA_ATCF_ID USA_LAT USA_LON USA_RECORD USA_STATUS USA_WIND USA_PRES USA_SSHS USA_R34_NE USA_R34_SE USA_R34_SW USA_R34_NW USA_R50_NE USA_R50_SE USA_R50_SW USA_R50_NW USA_R64_NE USA_R64_SE USA_R64_SW USA_R64_NW USA_POCI USA_ROCI USA_RMW USA_EYE TOKYO_LAT TOKYO_LON TOKYO_GRADE TOKYO_WIND TOKYO_PRES TOKYO_R50_DIR TOKYO_R50_LONG TOKYO_R50_SHORT TOKYO_R30_DIR TOKYO_R30_LONG TOKYO_R30_SHORT TOKYO_LAND CMA_LAT CMA_LON CMA_CAT CMA_WIND CMA_PRES HKO_LAT HKO_LON HKO_CAT HKO_WIND HKO_PRES NEWDELHI_LAT NEWDELHI_LON NEWDELHI_GRADE NEWDELHI_WIND NEWDELHI_PRES NEWDELHI_CI NEWDELHI_DP NEWDELHI_POCI REUNION_LAT REUNION_LON REUNION_TYPE REUNION_WIND REUNION_PRES REUNION_TNUM REUNION_CI REUNION_RMW REUNION_R34_NE REUNION_R34_SE REUNION_R34_SW REUNION_R34_NW REUNION_R50_NE REUNION_R50_SE REUNION_R50_SW REUNION_R50_NW REUNION_R64_NE REUNION_R64_SE REUNION_R64_SW REUNION_R64_NW BOM_LAT BOM_LON BOM_TYPE BOM_WIND BOM_PRES BOM_TNUM BOM_CI BOM_RMW BOM_R34_NE BOM_R34_SE BOM_R34_SW BOM_R34_NW BOM_R50_NE BOM_R50_SE BOM_R50_SW BOM_R50_NW BOM_R64_NE BOM_R64_SE BOM_R64_SW BOM_R64_NW BOM_ROCI BOM_POCI BOM_EYE BOM_POS_METHOD BOM_PRES_METHOD NADI_LAT NADI_LON NADI_CAT NADI_WIND NADI_PRES WELLINGTON_LAT WELLINGTON_LON WELLINGTON_WIND WELLINGTON_PRES DS824_LAT DS824_LON DS824_STAGE DS824_WIND DS824_PRES TD9636_LAT TD9636_LON TD9636_STAGE TD9636_WIND TD9636_PRES TD9635_LAT TD9635_LON TD9635_WIND TD9635_PRES TD9635_ROCI NEUMANN_LAT NEUMANN_LON NEUMANN_CLASS NEUMANN_WIND NEUMANN_PRES MLC_LAT MLC_LON MLC_CLASS MLC_WIND MLC_PRES USA_GUST BOM_GUST BOM_GUST_PER REUNION_GUST REUNION_GUST_PER USA_SEAHGT USA_SEARAD_NE USA_SEARAD_SE USA_SEARAD_SW USA_SEARAD_NW STORM_SPEED STORM_DIR
1942283N30289 1942 62 NA NA NOT_NAMED 1942-10-10 06:00:00 TS 29.6000 -71.3000 35 hurdat_atl main 749 714 O_____________ hurdat_atl AL091942 29.6000 -71.3000 TS 35 0 7 304
1942283N30289 1942 62 NA NA NOT_NAMED 1942-10-10 09:00:00 TS 29.8052 -71.6472 main 714 672 P_____________ AL091942 29.8052 -71.6472 TS 35 0 7 303
1942283N30289 1942 62 NA NA NOT_NAMED 1942-10-10 12:00:00 TS 30.0000 -72.0000 35 hurdat_atl main 672 637 O_____________ hurdat_atl AL091942 30.0000 -72.0000 TS 35 0 7 302
1942283N30289 1942 62 NA NA NOT_NAMED 1942-10-10 15:00:00 TS 30.1850 -72.3577 main 631 596 P_____________ AL091942 30.1850 -72.3577 TS 35 0 7 303
1942283N30289 1942 62 NA NA NOT_NAMED 1942-10-10 18:00:00 TS 30.4000 -72.7000 35 hurdat_atl main 596 552 O_____________ hurdat_atl AL091942 30.4000 -72.7000 TS 35 0 7 311
1942283N30289 1942 62 NA NA NOT_NAMED 1942-10-10 21:00:00 TS 30.6699 -73.0077 main 552 509 P_____________ AL091942 30.6699 -73.0077 TS 35 0 8 319
1942283N30289 1942 62 NA NA NOT_NAMED 1942-10-11 00:00:00 TS 31.0000 -73.3000 35 hurdat_atl main 509 465 O_____________ hurdat_atl AL091942 31.0000 -73.3000 TS 35 0 9 323
1942283N30289 1942 62 NA NA NOT_NAMED 1942-10-11 03:00:00 TS 31.3549 -73.6004 main 456 403 P_____________ AL091942 31.3549 -73.6004 TS 37 0 10 327
1942283N30289 1942 62 NA NA NOT_NAMED 1942-10-11 06:00:00 TS 31.8000 -73.9000 40 hurdat_atl main 403 333 O_____________ hurdat_atl AL091942 31.8000 -73.9000 TS 40 0 12 334
1942283N30289 1942 62 NA NA NOT_NAMED 1942-10-11 09:00:00 TS 32.3925 -74.2073 main 333 264 P_____________ AL091942 32.3925 -74.2073 TS 40 0 13 337
1942283N30289 1942 62 NA NA NOT_NAMED 1942-10-11 12:00:00 ET 33.0000 -74.5000 40 hurdat_atl main 264 205 O_____________ hurdat_atl AL091942 33.0000 -74.5000 EX 40 -4 12 337
1942283N30289 1942 62 NA NA NOT_NAMED 1942-10-11 15:00:00 ET 33.4874 -74.7654 main 205 163 P_____________ AL091942 33.4874 -74.7654 EX 42 -4 10 335
1942283N30289 1942 62 NA NA NOT_NAMED 1942-10-11 18:00:00 ET 33.9000 -75.0000 45 hurdat_atl main 163 120 O_____________ hurdat_atl AL091942 33.9000 -75.0000 EX 45 -4 9 335
1942283N30289 1942 62 NA NA NOT_NAMED 1942-10-11 21:00:00 ET 34.2800 -75.2152 main 120 88 P_____________ AL091942 34.2800 -75.2152 EX 45 -4 8 335
1942283N30289 1942 62 NA NA NOT_NAMED 1942-10-12 00:00:00 ET 34.6000 -75.4000 45 1000 hurdat_atl main 88 63 O_____________ hurdat_atl AL091942 34.6000 -75.4000 EX 45 1000 -4 7 334
1942283N30289 1942 62 NA NA NOT_NAMED 1942-10-12 03:00:00 ET 34.8725 -75.5652 main 63 49 P_____________ AL091942 34.8725 -75.5652 EX 42 -4 6 334
1942283N30289 1942 62 NA NA NOT_NAMED 1942-10-12 06:00:00 ET 35.1000 -75.7000 40 hurdat_atl main 49 28 O_____________ hurdat_atl AL091942 35.1000 -75.7000 EX 40 -4 5 338
1942283N30289 1942 62 NA NA NOT_NAMED 1942-10-12 09:00:00 ET 35.3299 -75.7926 main 28 9 P_____________ AL091942 35.3299 -75.7926 EX 40 -4 4 338
1942283N30289 1942 62 NA NA NOT_NAMED 1942-10-12 12:00:00 ET 35.5000 -75.9000 40 hurdat_atl main 9 0 O_____________ hurdat_atl AL091942 35.5000 -75.9000 EX 40 -4 4 319
1942283N30289 1942 62 NA NA NOT_NAMED 1942-10-12 15:00:00 ET 35.5950 -76.0774 main 0 0 P_____________ AL091942 35.5950 -76.0774 EX 37 -4 3 287
1942283N30289 1942 62 NA NA NOT_NAMED 1942-10-12 18:00:00 ET 35.6000 -76.3000 35 hurdat_atl main 0 0 O_____________ hurdat_atl AL091942 35.6000 -76.3000 EX 35 -4 4 259
1942283N30289 1942 62 NA NA NOT_NAMED 1942-10-12 21:00:00 ET 35.5226 -76.5452 main 0 0 P_____________ AL091942 35.5226 -76.5452 EX 32 -4 5 244
1942283N30289 1942 62 NA NA NOT_NAMED 1942-10-13 00:00:00 ET 35.4000 -76.8000 30 hurdat_atl main 0 O_____________ hurdat_atl AL091942 35.4000 -76.8000 EX 30 -4 5 240

About IBTrACS Database

This database is a web-friendly format of International Best Track Archive for Climate Stewardship (IBTrACS), a global best track data archive curated by NOAA dating back to 1842.

Updated: 2021-10-08